Time;durP1;ratioP1;P1;durP2;ratioP2;P2;SDS_P1;SDS_P2;PMS_P1;PMS_P2;Temp;Humidity;BMP_temperature;BMP_pressure;BME280_temperature;BME280_humidity;BME280_pressure;Samples;Min_cycle;Max_cycle;Signal;HPM_P1;HPM_P2
2022/05/13 00:02:16;;;;;;;14.10;12.60;;;;;;;;;;10550143;28;20401;-84
2022/05/13 00:07:18;;;;;;;16.77;12.50;;;;;;;;;;10550883;28;20503;-83
2022/05/13 00:12:20;;;;;;;15.10;12.95;;;;;;;;;;10550943;28;20396;-84
2022/05/13 00:17:24;;;;;;;18.48;13.13;;;;;;;;;;10550830;28;20476;-83
2022/05/13 00:22:26;;;;;;;17.37;13.03;;;;;;;;;;10550534;28;20446;-84
2022/05/13 00:27:28;;;;;;;15.93;13.13;;;;;;;;;;10549856;28;20416;-83
2022/05/13 00:32:31;;;;;;;16.15;13.02;;;;;;;;;;10547549;28;20396;-84
2022/05/13 00:37:33;;;;;;;18.60;13.87;;;;;;;;;;10548988;28;20519;-84
2022/05/13 00:42:35;;;;;;;17.80;13.85;;;;;;;;;;10549353;28;20992;-84
2022/05/13 00:47:38;;;;;;;18.35;14.27;;;;;;;;;;10549742;28;20887;-84
2022/05/13 00:52:41;;;;;;;19.23;14.30;;;;;;;;;;10549265;28;20402;-83
2022/05/13 00:57:43;;;;;;;18.43;15.30;;;;;;;;;;10549725;28;20405;-84
2022/05/13 01:02:48;;;;;;;21.30;15.40;;;;;;;;;;10547904;28;20430;-84
2022/05/13 01:07:52;;;;;;;19.00;15.57;;;;;;;;;;10546638;28;20448;-84
2022/05/13 01:12:58;;;;;;;20.83;15.87;;;;;;;;;;10548908;28;20403;-83
2022/05/13 01:18:07;;;;;;;18.98;15.98;;;;;;;;;;10550908;28;20391;-83
2022/05/13 01:23:16;;;;;;;20.48;16.13;;;;;;;;;;10546601;28;20398;-83
2022/05/13 01:28:20;;;;;;;23.33;17.58;;;;;;;;;;10547571;28;20422;-84
2022/05/13 01:33:23;;;;;;;21.20;17.35;;;;;;;;;;10547342;28;20409;-83
2022/05/13 01:38:30;;;;;;;22.25;18.17;;;;;;;;;;10547302;28;20492;-83
2022/05/13 01:43:32;;;;;;;24.05;19.27;;;;;;;;;;10547436;28;20517;-83
2022/05/13 01:48:34;;;;;;;25.88;20.05;;;;;;;;;;10548116;28;20420;-84
2022/05/13 01:53:37;;;;;;;26.08;18.98;;;;;;;;;;10544911;28;20484;-84
2022/05/13 01:58:39;;;;;;;23.67;19.10;;;;;;;;;;10548215;28;20492;-84
2022/05/13 02:03:48;;;;;;;24.15;19.25;;;;;;;;;;10539568;28;20867;-84
2022/05/13 02:08:54;;;;;;;25.55;19.85;;;;;;;;;;10541581;28;20418;-84
2022/05/13 02:13:56;;;;;;;25.97;20.20;;;;;;;;;;10569054;28;20398;-84
2022/05/13 02:18:58;;;;;;;24.17;19.15;;;;;;;;;;10568006;28;20888;-83
2022/05/13 02:24:01;;;;;;;25.67;20.70;;;;;;;;;;10551547;28;20636;-83
2022/05/13 02:29:03;;;;;;;27.95;20.98;;;;;;;;;;10568560;28;20421;-83
2022/05/13 02:34:05;;;;;;;26.17;21.07;;;;;;;;;;10565889;28;20406;-82
2022/05/13 02:39:08;;;;;;;26.48;22.25;;;;;;;;;;10562331;28;20487;-84
2022/05/13 02:44:11;;;;;;;29.60;22.83;;;;;;;;;;10566279;28;20416;-83
2022/05/13 02:49:13;;;;;;;32.40;24.13;;;;;;;;;;10567479;28;20419;-83
2022/05/13 02:54:17;;;;;;;33.35;24.73;;;;;;;;;;10561550;28;20699;-83
2022/05/13 02:59:19;;;;;;;31.35;24.65;;;;;;;;;;10566721;28;20398;-84
2022/05/13 03:04:21;;;;;;;30.77;25.00;;;;;;;;;;10566571;28;20921;-83
2022/05/13 03:09:24;;;;;;;31.80;24.40;;;;;;;;;;10550163;28;20777;-83
2022/05/13 03:14:26;;;;;;;30.43;23.87;;;;;;;;;;10566809;28;20472;-83
2022/05/13 03:19:28;;;;;;;31.45;24.58;;;;;;;;;;10567363;28;20475;-83
2022/05/13 03:24:31;;;;;;;33.00;23.60;;;;;;;;;;10543807;28;20449;-83
2022/05/13 03:29:33;;;;;;;31.95;23.73;;;;;;;;;;10564772;28;20881;-83
2022/05/13 03:34:37;;;;;;;29.75;23.75;;;;;;;;;;10565828;28;20886;-83
2022/05/13 03:39:40;;;;;;;30.90;24.15;;;;;;;;;;10564140;28;20494;-83
2022/05/13 03:44:42;;;;;;;30.25;24.15;;;;;;;;;;10565636;28;20399;-83
2022/05/13 03:49:45;;;;;;;30.38;24.60;;;;;;;;;;10566205;28;20497;-84
2022/05/13 03:54:48;;;;;;;29.33;24.23;;;;;;;;;;10547593;28;20405;-83
2022/05/13 03:59:50;;;;;;;29.00;24.33;;;;;;;;;;10565820;28;20402;-83
2022/05/13 04:10:27;;;;;;;32.17;24.40;;;;;;;;;;10377945;28;20410;-83
2022/05/13 04:20:48;;;;;;;28.48;23.30;;;;;;;;;;10542333;28;20389;-83
2022/05/13 04:25:52;;;;;;;32.75;24.77;;;;;;;;;;10540861;28;20491;-84
2022/05/13 04:30:53;;;;;;;32.38;24.60;;;;;;;;;;10542257;28;20861;-83
2022/05/13 04:35:55;;;;;;;31.63;24.92;;;;;;;;;;10542434;28;20423;-84
2022/05/13 04:42:49;;;;;;;34.28;25.83;;;;;;;;;;10546061;28;20426;-83
2022/05/13 04:46:20;;;;;;;32.97;25.35;;;;;;;;;;10549055;28;20394;-84
2022/05/13 04:51:23;;;;;;;34.40;26.02;;;;;;;;;;10548388;28;20426;-83
2022/05/13 04:56:27;;;;;;;34.70;25.98;;;;;;;;;;10551198;28;20483;-83
2022/05/13 05:01:29;;;;;;;35.20;26.33;;;;;;;;;;10550496;28;20399;-84
2022/05/13 05:06:31;;;;;;;35.20;27.13;;;;;;;;;;10544607;28;20435;-83
2022/05/13 05:11:34;;;;;;;36.70;28.27;;;;;;;;;;10546935;28;20418;-82
2022/05/13 05:16:36;;;;;;;35.60;27.42;;;;;;;;;;10553200;28;20485;-82
2022/05/13 05:21:38;;;;;;;36.63;27.30;;;;;;;;;;10563101;28;20405;-83
2022/05/13 05:26:41;;;;;;;32.92;26.65;;;;;;;;;;10556852;28;20408;-84
2022/05/13 05:31:43;;;;;;;35.83;27.08;;;;;;;;;;10558733;28;20518;-83
2022/05/13 05:36:45;;;;;;;35.08;26.08;;;;;;;;;;10537319;28;20395;-84
2022/05/13 05:41:48;;;;;;;35.28;27.05;;;;;;;;;;10532801;28;20446;-82
2022/05/13 05:46:50;;;;;;;36.63;26.75;;;;;;;;;;10542373;28;20404;-88
2022/05/13 05:51:52;;;;;;;31.45;24.30;;;;;;;;;;10535661;28;20449;-82
2022/05/13 06:02:14;;;;;;;29.38;22.42;;;;;;;;;;10542948;28;20388;-80
2022/05/13 06:07:18;;;;;;;28.27;20.88;;;;;;;;;;10536289;28;20398;-80
2022/05/13 06:12:21;;;;;;;27.63;19.87;;;;;;;;;;10535019;28;20410;-81
2022/05/13 06:17:23;;;;;;;25.63;20.20;;;;;;;;;;10549827;28;20414;-82
2022/05/13 06:22:24;;;;;;;26.05;19.40;;;;;;;;;;10548324;28;20409;-83
2022/05/13 06:27:28;;;;;;;25.27;19.90;;;;;;;;;;10547226;28;20409;-82
2022/05/13 06:32:29;;;;;;;23.37;19.97;;;;;;;;;;10545948;28;20761;-81
2022/05/13 06:37:31;;;;;;;23.90;18.33;;;;;;;;;;10544702;28;20829;-82
2022/05/13 06:42:34;;;;;;;19.83;15.25;;;;;;;;;;10543741;28;20396;-82
2022/05/13 06:47:37;;;;;;;17.23;13.77;;;;;;;;;;10546591;28;20391;-82
2022/05/13 06:52:39;;;;;;;20.30;14.50;;;;;;;;;;10538396;28;20411;-82
2022/05/13 06:57:42;;;;;;;17.97;13.27;;;;;;;;;;10546232;28;20398;-82
2022/05/13 07:02:44;;;;;;;17.48;12.43;;;;;;;;;;10540190;28;21026;-82
2022/05/13 07:07:46;;;;;;;19.65;12.65;;;;;;;;;;10524556;28;21025;-82
2022/05/13 07:12:49;;;;;;;14.03;11.23;;;;;;;;;;10545373;28;20476;-82
2022/05/13 07:17:51;;;;;;;14.98;11.15;;;;;;;;;;10545124;28;20903;-82
2022/05/13 07:22:53;;;;;;;15.38;12.05;;;;;;;;;;10538771;28;20401;-82
2022/05/13 07:27:57;;;;;;;16.27;10.73;;;;;;;;;;10556406;22;20392;-78
2022/05/13 07:32:59;;;;;;;13.00;11.13;;;;;;;;;;10497878;28;20402;-80
2022/05/13 07:38:01;;;;;;;14.73;10.40;;;;;;;;;;10499122;28;20497;-80
2022/05/13 07:43:04;;;;;;;13.63;9.57;;;;;;;;;;10499414;28;20401;-80
2022/05/13 07:48:07;;;;;;;13.93;10.40;;;;;;;;;;10503164;28;20410;-80
2022/05/13 07:53:09;;;;;;;13.48;9.55;;;;;;;;;;10498382;28;20436;-80
2022/05/13 07:58:12;;;;;;;13.75;9.90;;;;;;;;;;10500411;28;20411;-79
2022/05/13 08:03:16;;;;;;;13.37;9.50;;;;;;;;;;10502600;28;20504;-80
2022/05/13 08:08:20;;;;;;;14.80;10.48;;;;;;;;;;10498476;28;20410;-81
2022/05/13 08:13:24;;;;;;;14.60;10.35;;;;;;;;;;10504923;28;20404;-80
2022/05/13 08:18:26;;;;;;;16.63;11.67;;;;;;;;;;10510363;28;20483;-79
2022/05/13 08:23:28;;;;;;;15.90;11.30;;;;;;;;;;10507539;28;20460;-80
2022/05/13 08:28:32;;;;;;;18.45;12.93;;;;;;;;;;10510070;28;20844;-80
2022/05/13 08:33:34;;;;;;;17.02;12.73;;;;;;;;;;10511443;28;20859;-80
2022/05/13 08:38:38;;;;;;;16.42;12.15;;;;;;;;;;10508823;28;20407;-81
2022/05/13 08:43:44;;;;;;;18.90;12.20;;;;;;;;;;10510382;28;20493;-80
2022/05/13 08:49:02;;;;;;;17.30;13.18;;;;;;;;;;10506984;28;20428;-80
2022/05/13 08:54:11;;;;;;;15.55;12.68;;;;;;;;;;10505737;28;20402;-80
2022/05/13 08:59:18;;;;;;;17.93;12.60;;;;;;;;;;10508651;28;20914;-80
2022/05/13 09:04:32;;;;;;;18.25;12.55;;;;;;;;;;10508130;28;20418;-82
2022/05/13 09:09:36;;;;;;;15.50;11.98;;;;;;;;;;10501758;28;20416;-81
2022/05/13 09:14:45;;;;;;;17.75;12.07;;;;;;;;;;10508147;28;20411;-82
2022/05/13 09:19:54;;;;;;;16.33;11.80;;;;;;;;;;10508448;28;20397;-80
2022/05/13 09:24:56;;;;;;;16.67;11.73;;;;;;;;;;10498934;28;20460;-81
2022/05/13 09:29:59;;;;;;;15.15;11.27;;;;;;;;;;10507567;28;20428;-81
2022/05/13 09:35:08;;;;;;;17.00;11.73;;;;;;;;;;10509570;28;20461;-81
2022/05/13 09:40:12;;;;;;;17.45;12.70;;;;;;;;;;10498471;28;20406;-80
2022/05/13 09:45:22;;;;;;;14.20;10.53;;;;;;;;;;10511208;28;20399;-82
2022/05/13 09:50:27;;;;;;;15.63;13.30;;;;;;;;;;10511157;28;20422;-81
2022/05/13 09:55:34;;;;;;;16.77;11.50;;;;;;;;;;10502702;28;20408;-80
2022/05/13 10:00:41;;;;;;;16.23;12.15;;;;;;;;;;10506425;28;20408;-81
2022/05/13 10:05:45;;;;;;;17.45;11.63;;;;;;;;;;10505300;28;20492;-80
2022/05/13 10:16:23;;;;;;;13.18;11.02;;;;;;;;;;10508383;28;20388;-79
2022/05/13 10:21:30;;;;;;;13.60;10.57;;;;;;;;;;10500182;28;20396;-73
2022/05/13 10:26:36;;;;;;;11.73;10.43;;;;;;;;;;10503584;28;20488;-79
2022/05/13 10:31:42;;;;;;;15.15;11.45;;;;;;;;;;10505085;28;20427;-81
2022/05/13 10:36:48;;;;;;;12.65;9.45;;;;;;;;;;10504270;28;20400;-80
2022/05/13 10:41:53;;;;;;;13.02;9.27;;;;;;;;;;10499756;28;20407;-78
2022/05/13 10:46:59;;;;;;;10.30;8.80;;;;;;;;;;10504725;28;20482;-81
2022/05/13 10:52:09;;;;;;;11.85;8.32;;;;;;;;;;10501687;28;20420;-81
2022/05/13 10:57:25;;;;;;;11.27;8.27;;;;;;;;;;10500795;28;20394;-81
2022/05/13 11:03:16;;;;;;;14.50;9.10;;;;;;;;;;10508341;28;20416;-80
2022/05/13 11:08:24;;;;;;;10.67;8.10;;;;;;;;;;10449603;28;20420;-81
2022/05/13 11:13:43;;;;;;;10.82;8.30;;;;;;;;;;10513287;28;20409;-80
2022/05/13 11:18:55;;;;;;;11.07;8.23;;;;;;;;;;10499231;28;20415;-79
2022/05/13 11:29:32;;;;;;;12.00;8.20;;;;;;;;;;10504232;28;20422;-80
2022/05/13 11:35:00;;;;;;;11.68;8.30;;;;;;;;;;10501966;28;20408;-80
2022/05/13 11:40:26;;;;;;;11.35;7.68;;;;;;;;;;10487790;28;20907;-81
2022/05/13 11:45:42;;;;;;;8.90;8.10;;;;;;;;;;10495342;28;20406;-81
2022/05/13 11:50:44;;;;;;;13.13;8.10;;;;;;;;;;10505605;28;20423;-81
2022/05/13 11:55:51;;;;;;;12.77;7.97;;;;;;;;;;10502851;28;20841;-81
2022/05/13 12:00:53;;;;;;;10.48;7.90;;;;;;;;;;10509108;28;20428;-82
2022/05/13 12:06:02;;;;;;;10.03;8.70;;;;;;;;;;10517929;28;20396;-80
2022/05/13 12:11:33;;;;;;;9.63;8.23;;;;;;;;;;10516652;28;20435;-80
2022/05/13 12:16:43;;;;;;;11.23;8.80;;;;;;;;;;10509852;28;20384;-82
2022/05/13 12:21:50;;;;;;;13.90;9.90;;;;;;;;;;10514989;28;20419;-81
2022/05/13 12:27:14;;;;;;;12.65;8.82;;;;;;;;;;10445574;28;20841;-82
2022/05/13 12:32:24;;;;;;;12.47;8.40;;;;;;;;;;10430202;28;20432;-81
2022/05/13 12:37:40;;;;;;;14.73;9.47;;;;;;;;;;10423689;28;20404;-81
2022/05/13 12:42:54;;;;;;;10.57;8.43;;;;;;;;;;10417408;28;20418;-82
2022/05/13 12:48:11;;;;;;;10.90;7.90;;;;;;;;;;10425057;28;20410;-82
2022/05/13 12:53:39;;;;;;;10.35;7.38;;;;;;;;;;10428155;28;20427;-81
2022/05/13 12:58:47;;;;;;;8.95;7.50;;;;;;;;;;10432318;28;21456;-80
2022/05/13 13:03:53;;;;;;;11.52;7.97;;;;;;;;;;10432075;28;20410;-84
2022/05/13 13:08:55;;;;;;;11.90;8.30;;;;;;;;;;10436103;28;21948;-85
2022/05/13 13:14:07;;;;;;;8.52;7.35;;;;;;;;;;10436028;28;20497;-86
2022/05/13 13:19:13;;;;;;;9.80;8.30;;;;;;;;;;10434706;28;20487;-83
2022/05/13 13:24:19;;;;;;;10.87;7.80;;;;;;;;;;10422408;28;20995;-86
2022/05/13 13:29:27;;;;;;;12.30;8.50;;;;;;;;;;10431049;28;20418;-84
2022/05/13 13:34:35;;;;;;;11.02;8.73;;;;;;;;;;10426767;28;21050;-85
2022/05/13 13:39:37;;;;;;;10.60;7.57;;;;;;;;;;10440136;28;20410;-85
2022/05/13 13:44:43;;;;;;;11.13;8.20;;;;;;;;;;10457107;28;20410;-85
2022/05/13 13:49:49;;;;;;;10.87;7.30;;;;;;;;;;10458986;28;20416;-84
2022/05/13 13:54:54;;;;;;;9.67;7.47;;;;;;;;;;10457781;28;21362;-84
2022/05/13 14:00:07;;;;;;;11.98;8.07;;;;;;;;;;10454217;28;20481;-84
2022/05/13 14:05:12;;;;;;;9.63;7.77;;;;;;;;;;10456630;28;20394;-83
2022/05/13 14:10:17;;;;;;;11.18;8.13;;;;;;;;;;10460828;28;20425;-83
2022/05/13 14:15:22;;;;;;;9.43;8.00;;;;;;;;;;10457835;28;20442;-81
2022/05/13 14:20:31;;;;;;;11.98;9.00;;;;;;;;;;10450485;28;20406;-80
2022/05/13 14:25:39;;;;;;;11.40;7.63;;;;;;;;;;10472158;28;20412;-81
2022/05/13 14:30:44;;;;;;;9.80;8.20;;;;;;;;;;10457385;28;20429;-80
2022/05/13 14:35:46;;;;;;;10.83;7.97;;;;;;;;;;10460252;28;20493;-83
2022/05/13 14:40:51;;;;;;;11.10;8.47;;;;;;;;;;10451648;28;20425;-82
2022/05/13 14:46:08;;;;;;;9.65;8.65;;;;;;;;;;10452225;28;20410;-81
2022/05/13 14:51:18;;;;;;;10.20;8.32;;;;;;;;;;10450781;28;20430;-81
2022/05/13 14:56:20;;;;;;;9.50;8.07;;;;;;;;;;10460895;28;20751;-81
2022/05/13 15:01:26;;;;;;;12.67;8.50;;;;;;;;;;10511784;28;20495;-82
2022/05/13 15:06:44;;;;;;;11.07;8.43;;;;;;;;;;10504270;28;20485;-83
2022/05/13 15:11:46;;;;;;;11.83;8.73;;;;;;;;;;10498749;28;20416;-82
2022/05/13 15:16:50;;;;;;;12.05;8.77;;;;;;;;;;10511000;28;20404;-83
2022/05/13 15:21:54;;;;;;;10.27;8.82;;;;;;;;;;10513466;28;20422;-78
2022/05/13 15:26:59;;;;;;;13.75;8.93;;;;;;;;;;10507636;28;20416;-85
2022/05/13 15:32:04;;;;;;;9.67;8.67;;;;;;;;;;10506305;28;20507;-83
2022/05/13 15:37:07;;;;;;;9.93;8.63;;;;;;;;;;10509226;28;20390;-83
2022/05/13 15:42:09;;;;;;;10.90;8.52;;;;;;;;;;10507335;28;20404;-83
2022/05/13 15:47:16;;;;;;;11.43;7.50;;;;;;;;;;10498004;28;20399;-83
2022/05/13 15:57:40;;;;;;;10.93;7.93;;;;;;;;;;10504307;28;20396;-84
2022/05/13 16:02:43;;;;;;;12.05;8.20;;;;;;;;;;10504399;28;20411;-84
2022/05/13 16:07:45;;;;;;;10.23;7.85;;;;;;;;;;10503403;28;20408;-84
2022/05/13 16:12:56;;;;;;;11.27;8.03;;;;;;;;;;10506447;28;20425;-84
2022/05/13 16:18:01;;;;;;;8.55;7.60;;;;;;;;;;10504118;28;21097;-83
2022/05/13 16:23:04;;;;;;;10.25;7.97;;;;;;;;;;10501405;28;20495;-81
2022/05/13 16:28:07;;;;;;;10.68;8.38;;;;;;;;;;10495345;28;20493;-82
2022/05/13 16:33:10;;;;;;;11.70;7.50;;;;;;;;;;10498807;28;20820;-82
2022/05/13 16:38:14;;;;;;;9.27;7.70;;;;;;;;;;10506926;28;20404;-82
2022/05/13 16:43:15;;;;;;;8.77;7.88;;;;;;;;;;10516732;28;20981;-83
2022/05/13 16:48:19;;;;;;;9.40;7.40;;;;;;;;;;10515400;28;20397;-83
2022/05/13 16:53:20;;;;;;;11.47;7.83;;;;;;;;;;10512610;28;20957;-84
2022/05/13 16:58:22;;;;;;;12.32;8.00;;;;;;;;;;10508587;28;20399;-84
2022/05/13 17:03:25;;;;;;;10.68;7.97;;;;;;;;;;10513336;28;20403;-81
2022/05/13 17:16:12;;;;;;;9.95;7.57;;;;;;;;;;10511682;28;20480;-81
2022/05/13 17:19:20;;;;;;;12.27;7.80;;;;;;;;;;10509325;28;20899;-81
2022/05/13 17:24:26;;;;;;;8.63;7.40;;;;;;;;;;10503725;28;20421;-82
2022/05/13 17:29:28;;;;;;;12.47;7.83;;;;;;;;;;10514235;28;21979;-82
2022/05/13 17:34:31;;;;;;;10.73;7.50;;;;;;;;;;10524686;28;20416;-82
2022/05/13 17:39:35;;;;;;;10.23;7.33;;;;;;;;;;10523772;28;20413;-81
2022/05/13 17:44:37;;;;;;;9.60;7.10;;;;;;;;;;10524788;28;20406;-82
2022/05/13 17:49:40;;;;;;;9.43;7.25;;;;;;;;;;10521165;28;20416;-83
2022/05/13 17:54:42;;;;;;;15.07;7.00;;;;;;;;;;10517696;28;20768;-82
2022/05/13 17:59:44;;;;;;;10.13;7.53;;;;;;;;;;10520008;28;20979;-81
2022/05/13 18:04:47;;;;;;;13.97;7.57;;;;;;;;;;10522498;28;20412;-82
2022/05/13 18:09:49;;;;;;;11.25;7.40;;;;;;;;;;10517414;28;20416;-82
2022/05/13 18:14:51;;;;;;;14.40;8.03;;;;;;;;;;10518495;28;20434;-81
2022/05/13 18:19:55;;;;;;;11.20;8.70;;;;;;;;;;10513259;28;21730;-81
2022/05/13 18:24:57;;;;;;;14.17;8.77;;;;;;;;;;10512999;28;20879;-82
2022/05/13 18:29:59;;;;;;;15.80;8.77;;;;;;;;;;10513656;28;20952;-82
2022/05/13 18:35:03;;;;;;;16.83;9.35;;;;;;;;;;10503787;28;20524;-81
2022/05/13 18:50:46;;;;;;;13.18;9.85;;;;;;;;;;10508836;28;20433;-81
2022/05/13 18:55:48;;;;;;;14.05;9.18;;;;;;;;;;10505479;28;20435;-81
2022/05/13 19:00:50;;;;;;;14.63;9.43;;;;;;;;;;10505754;28;20904;-81
2022/05/13 19:05:54;;;;;;;13.93;9.23;;;;;;;;;;10511655;28;20780;-81
2022/05/13 19:10:55;;;;;;;13.23;8.80;;;;;;;;;;10507338;28;20812;-82
2022/05/13 19:15:58;;;;;;;12.15;10.18;;;;;;;;;;10502175;28;20447;-79
2022/05/13 19:21:02;;;;;;;15.13;10.45;;;;;;;;;;10500062;28;20781;-81
2022/05/13 19:26:08;;;;;;;12.73;10.65;;;;;;;;;;10494990;28;20421;-81
2022/05/13 19:31:13;;;;;;;10.75;6.10;;;;;;;;;;10503915;28;20424;-82
2022/05/13 19:36:18;;;;;;;17.08;4.50;;;;;;;;;;10509730;28;21517;-82
2022/05/13 19:41:21;;;;;;;8.77;4.13;;;;;;;;;;10510374;28;20461;-81
2022/05/13 19:46:32;;;;;;;8.48;4.53;;;;;;;;;;10506037;28;20415;-82
2022/05/13 19:51:39;;;;;;;7.15;4.72;;;;;;;;;;10508295;28;20408;-81
2022/05/13 19:56:47;;;;;;;9.20;4.30;;;;;;;;;;10511514;28;20416;-81
2022/05/13 20:01:49;;;;;;;22.33;8.02;;;;;;;;;;10509094;28;20404;-81
2022/05/13 20:12:11;;;;;;;16.55;7.50;;;;;;;;;;10519298;28;20764;-82
2022/05/13 20:17:13;;;;;;;12.30;7.00;;;;;;;;;;10512549;28;20727;-82
2022/05/13 20:27:35;;;;;;;12.77;8.10;;;;;;;;;;10515631;28;20473;-80
2022/05/13 20:32:37;;;;;;;11.50;8.40;;;;;;;;;;10515182;28;20421;-80
2022/05/13 20:37:40;;;;;;;16.25;9.38;;;;;;;;;;10514711;28;20913;-80
2022/05/13 20:42:42;;;;;;;14.43;8.70;;;;;;;;;;10506856;28;20449;-82
2022/05/13 20:47:44;;;;;;;16.40;10.10;;;;;;;;;;10516555;28;20503;-78
2022/05/13 20:52:48;;;;;;;15.93;9.90;;;;;;;;;;10511755;28;20416;-82
2022/05/13 20:57:50;;;;;;;16.67;9.82;;;;;;;;;;10513791;28;21089;-82
2022/05/13 21:02:52;;;;;;;14.60;11.40;;;;;;;;;;10506399;28;20837;-82
2022/05/13 21:07:56;;;;;;;15.43;11.77;;;;;;;;;;10506293;28;20408;-81
2022/05/13 21:12:57;;;;;;;14.93;11.70;;;;;;;;;;10509772;28;20424;-81
2022/05/13 21:18:00;;;;;;;13.82;10.50;;;;;;;;;;10505344;28;20947;-83
2022/05/13 21:23:04;;;;;;;14.50;12.38;;;;;;;;;;10504831;28;20408;-83
2022/05/13 21:28:06;;;;;;;13.90;11.13;;;;;;;;;;10500879;28;20501;-83
2022/05/13 21:38:28;;;;;;;17.27;12.93;;;;;;;;;;10507427;28;20904;-83
2022/05/13 21:43:30;;;;;;;18.63;14.32;;;;;;;;;;10506479;28;20417;-83
2022/05/13 21:48:32;;;;;;;13.77;12.38;;;;;;;;;;10510031;28;20879;-83
2022/05/13 21:53:36;;;;;;;18.73;13.33;;;;;;;;;;10516844;28;20416;-82
2022/05/13 21:58:37;;;;;;;17.30;13.40;;;;;;;;;;10509945;28;20507;-83
2022/05/13 22:03:39;;;;;;;17.08;13.38;;;;;;;;;;10507753;28;20592;-82
2022/05/13 22:08:42;;;;;;;16.87;13.73;;;;;;;;;;10507530;28;20771;-82
2022/05/13 22:13:44;;;;;;;17.45;14.30;;;;;;;;;;10516383;28;20427;-81
2022/05/13 22:18:46;;;;;;;18.70;15.13;;;;;;;;;;10513019;28;20428;-82
2022/05/13 22:23:49;;;;;;;17.30;14.70;;;;;;;;;;10512870;28;20488;-82
2022/05/13 22:28:51;;;;;;;18.80;15.20;;;;;;;;;;10507134;28;20414;-82
2022/05/13 22:33:53;;;;;;;19.73;15.45;;;;;;;;;;10514902;28;20426;-82
2022/05/13 22:38:57;;;;;;;21.00;15.55;;;;;;;;;;10514426;28;20869;-82
2022/05/13 22:44:00;;;;;;;18.30;15.35;;;;;;;;;;10500897;28;20420;-83
2022/05/13 22:49:02;;;;;;;17.23;14.93;;;;;;;;;;10503899;28;20400;-83
2022/05/13 22:54:05;;;;;;;19.48;15.32;;;;;;;;;;10503249;28;20503;-83
2022/05/13 22:59:07;;;;;;;22.13;15.90;;;;;;;;;;10503315;28;20404;-82
2022/05/13 23:04:09;;;;;;;18.42;16.00;;;;;;;;;;10502496;28;20773;-82
2022/05/13 23:14:32;;;;;;;19.60;16.48;;;;;;;;;;10502247;28;20409;-82
2022/05/13 23:19:33;;;;;;;20.00;17.50;;;;;;;;;;10502034;28;20400;-82
2022/05/13 23:24:37;;;;;;;21.40;17.50;;;;;;;;;;10499639;28;20739;-82
2022/05/13 23:29:38;;;;;;;20.77;18.15;;;;;;;;;;10495990;28;20504;-82
2022/05/13 23:34:40;;;;;;;23.35;18.77;;;;;;;;;;10501030;28;20418;-82
2022/05/13 23:39:43;;;;;;;26.13;18.90;;;;;;;;;;10501906;28;20481;-82
2022/05/13 23:44:46;;;;;;;21.70;18.25;;;;;;;;;;10504114;28;21122;-82
2022/05/13 23:49:49;;;;;;;23.07;18.43;;;;;;;;;;10509555;28;20573;-82
